sensor_id;sensor_type;location;lat;lon;timestamp;P1;durP1;ratioP1;P2;durP2;ratioP2
72501;SDS011;60524;49.874;8.652;2022-08-01T00:01:55;3.15;;;1.58;;
72501;SDS011;60524;49.874;8.652;2022-08-01T00:04:20;2.37;;;1.40;;
72501;SDS011;60524;49.874;8.652;2022-08-01T00:06:45;2.53;;;1.30;;
72501;SDS011;60524;49.874;8.652;2022-08-01T00:09:11;3.83;;;1.40;;
72501;SDS011;60524;49.874;8.652;2022-08-01T00:11:36;5.00;;;1.50;;
72501;SDS011;60524;49.874;8.652;2022-08-01T00:14:02;1.57;;;1.20;;
72501;SDS011;60524;49.874;8.652;2022-08-01T00:16:27;3.47;;;1.23;;
72501;SDS011;60524;49.874;8.652;2022-08-01T00:18:52;1.65;;;1.20;;
72501;SDS011;60524;49.874;8.652;2022-08-01T00:21:19;3.05;;;1.25;;
72501;SDS011;60524;49.874;8.652;2022-08-01T00:23:44;3.05;;;1.27;;
72501;SDS011;60524;49.874;8.652;2022-08-01T00:26:13;4.13;;;1.15;;
72501;SDS011;60524;49.874;8.652;2022-08-01T00:28:39;1.63;;;1.05;;
72501;SDS011;60524;49.874;8.652;2022-08-01T00:31:04;2.28;;;1.20;;
72501;SDS011;60524;49.874;8.652;2022-08-01T00:33:29;2.40;;;1.30;;
72501;SDS011;60524;49.874;8.652;2022-08-01T00:35:55;2.33;;;1.20;;
72501;SDS011;60524;49.874;8.652;2022-08-01T00:38:21;1.90;;;1.20;;
72501;SDS011;60524;49.874;8.652;2022-08-01T00:40:46;2.33;;;1.30;;
72501;SDS011;60524;49.874;8.652;2022-08-01T00:43:11;2.80;;;1.23;;
72501;SDS011;60524;49.874;8.652;2022-08-01T00:45:37;2.03;;;1.10;;
72501;SDS011;60524;49.874;8.652;2022-08-01T00:48:02;1.70;;;0.90;;
72501;SDS011;60524;49.874;8.652;2022-08-01T00:50:28;2.10;;;1.20;;
72501;SDS011;60524;49.874;8.652;2022-08-01T00:52:53;2.63;;;1.30;;
72501;SDS011;60524;49.874;8.652;2022-08-01T00:55:19;2.10;;;1.00;;
72501;SDS011;60524;49.874;8.652;2022-08-01T00:57:45;3.47;;;1.40;;
72501;SDS011;60524;49.874;8.652;2022-08-01T01:00:11;1.95;;;1.10;;
72501;SDS011;60524;49.874;8.652;2022-08-01T01:02:37;2.92;;;1.30;;
72501;SDS011;60524;49.874;8.652;2022-08-01T01:05:03;1.77;;;1.03;;
72501;SDS011;60524;49.874;8.652;2022-08-01T01:18:37;4.35;;;1.40;;
72501;SDS011;60524;49.874;8.652;2022-08-01T01:29:42;2.25;;;1.20;;
72501;SDS011;60524;49.874;8.652;2022-08-01T01:32:14;4.13;;;1.48;;
72501;SDS011;60524;49.874;8.652;2022-08-01T01:34:43;1.80;;;1.00;;
72501;SDS011;60524;49.874;8.652;2022-08-01T01:37:11;3.05;;;1.20;;
72501;SDS011;60524;49.874;8.652;2022-08-01T01:39:38;3.10;;;1.20;;
72501;SDS011;60524;49.874;8.652;2022-08-01T01:42:06;2.85;;;1.10;;
72501;SDS011;60524;49.874;8.652;2022-08-01T01:44:31;2.55;;;1.20;;
72501;SDS011;60524;49.874;8.652;2022-08-01T01:46:57;3.08;;;1.00;;
72501;SDS011;60524;49.874;8.652;2022-08-01T01:49:25;1.35;;;0.80;;
72501;SDS011;60524;49.874;8.652;2022-08-01T01:51:53;1.98;;;1.00;;
72501;SDS011;60524;49.874;8.652;2022-08-01T01:54:19;3.05;;;1.00;;
72501;SDS011;60524;49.874;8.652;2022-08-01T01:56:45;2.88;;;0.80;;
72501;SDS011;60524;49.874;8.652;2022-08-01T01:59:15;1.92;;;0.95;;
72501;SDS011;60524;49.874;8.652;2022-08-01T02:01:42;3.05;;;0.93;;
72501;SDS011;60524;49.874;8.652;2022-08-01T02:04:09;3.35;;;1.00;;
72501;SDS011;60524;49.874;8.652;2022-08-01T02:06:34;2.30;;;0.80;;
72501;SDS011;60524;49.874;8.652;2022-08-01T02:09:01;2.03;;;0.95;;
72501;SDS011;60524;49.874;8.652;2022-08-01T02:11:27;2.63;;;0.85;;
72501;SDS011;60524;49.874;8.652;2022-08-01T02:13:55;2.08;;;1.13;;
72501;SDS011;60524;49.874;8.652;2022-08-01T02:16:25;2.75;;;0.90;;
72501;SDS011;60524;49.874;8.652;2022-08-01T02:21:18;2.70;;;0.97;;
72501;SDS011;60524;49.874;8.652;2022-08-01T02:23:55;1.77;;;0.98;;
72501;SDS011;60524;49.874;8.652;2022-08-01T02:26:26;3.15;;;0.82;;
72501;SDS011;60524;49.874;8.652;2022-08-01T02:28:59;1.17;;;0.80;;
72501;SDS011;60524;49.874;8.652;2022-08-01T02:31:28;2.05;;;0.73;;
72501;SDS011;60524;49.874;8.652;2022-08-01T02:33:59;3.92;;;1.10;;
72501;SDS011;60524;49.874;8.652;2022-08-01T02:36:27;1.50;;;0.82;;
72501;SDS011;60524;49.874;8.652;2022-08-01T02:38:53;2.40;;;1.02;;
72501;SDS011;60524;49.874;8.652;2022-08-01T02:41:20;2.15;;;1.10;;
72501;SDS011;60524;49.874;8.652;2022-08-01T02:46:16;3.03;;;0.93;;
72501;SDS011;60524;49.874;8.652;2022-08-01T02:48:45;1.30;;;0.80;;
72501;SDS011;60524;49.874;8.652;2022-08-01T02:51:11;3.35;;;0.88;;
72501;SDS011;60524;49.874;8.652;2022-08-01T02:53:37;1.85;;;0.82;;
72501;SDS011;60524;49.874;8.652;2022-08-01T02:56:04;1.25;;;0.82;;
72501;SDS011;60524;49.874;8.652;2022-08-01T02:58:30;1.52;;;0.82;;
72501;SDS011;60524;49.874;8.652;2022-08-01T03:00:57;3.45;;;1.02;;
72501;SDS011;60524;49.874;8.652;2022-08-01T03:03:22;2.75;;;0.80;;
72501;SDS011;60524;49.874;8.652;2022-08-01T03:05:49;3.30;;;0.82;;
72501;SDS011;60524;49.874;8.652;2022-08-01T03:08:14;1.80;;;0.80;;
72501;SDS011;60524;49.874;8.652;2022-08-01T03:10:41;4.00;;;1.20;;
72501;SDS011;60524;49.874;8.652;2022-08-01T03:13:08;1.90;;;0.90;;
72501;SDS011;60524;49.874;8.652;2022-08-01T03:15:35;1.60;;;0.80;;
72501;SDS011;60524;49.874;8.652;2022-08-01T03:18:02;2.13;;;0.85;;
72501;SDS011;60524;49.874;8.652;2022-08-01T03:20:29;2.25;;;0.90;;
72501;SDS011;60524;49.874;8.652;2022-08-01T03:22:55;1.58;;;0.75;;
72501;SDS011;60524;49.874;8.652;2022-08-01T03:25:21;3.00;;;0.90;;
72501;SDS011;60524;49.874;8.652;2022-08-01T03:27:47;2.92;;;0.93;;
72501;SDS011;60524;49.874;8.652;2022-08-01T03:30:16;3.65;;;1.13;;
72501;SDS011;60524;49.874;8.652;2022-08-01T03:32:42;3.42;;;0.90;;
72501;SDS011;60524;49.874;8.652;2022-08-01T03:35:07;2.88;;;1.10;;
72501;SDS011;60524;49.874;8.652;2022-08-01T03:37:44;10.90;;;1.92;;
72501;SDS011;60524;49.874;8.652;2022-08-01T03:40:13;6.78;;;2.17;;
72501;SDS011;60524;49.874;8.652;2022-08-01T03:42:47;5.63;;;1.05;;
72501;SDS011;60524;49.874;8.652;2022-08-01T03:45:23;2.85;;;0.90;;
72501;SDS011;60524;49.874;8.652;2022-08-01T03:47:52;2.40;;;0.90;;
72501;SDS011;60524;49.874;8.652;2022-08-01T03:50:22;3.70;;;1.20;;
72501;SDS011;60524;49.874;8.652;2022-08-01T03:52:49;2.10;;;0.80;;
72501;SDS011;60524;49.874;8.652;2022-08-01T03:55:15;3.22;;;0.80;;
72501;SDS011;60524;49.874;8.652;2022-08-01T03:57:45;1.52;;;0.80;;
72501;SDS011;60524;49.874;8.652;2022-08-01T04:00:11;2.65;;;0.90;;
72501;SDS011;60524;49.874;8.652;2022-08-01T04:02:37;1.35;;;0.80;;
72501;SDS011;60524;49.874;8.652;2022-08-01T04:05:03;2.50;;;0.85;;
72501;SDS011;60524;49.874;8.652;2022-08-01T04:07:29;1.38;;;0.70;;
72501;SDS011;60524;49.874;8.652;2022-08-01T04:09:56;2.42;;;0.90;;
72501;SDS011;60524;49.874;8.652;2022-08-01T04:12:22;1.75;;;0.82;;
72501;SDS011;60524;49.874;8.652;2022-08-01T04:14:47;2.70;;;1.17;;
72501;SDS011;60524;49.874;8.652;2022-08-01T04:17:13;2.58;;;1.00;;
72501;SDS011;60524;49.874;8.652;2022-08-01T04:19:40;7.07;;;1.20;;
72501;SDS011;60524;49.874;8.652;2022-08-01T04:22:05;1.90;;;0.98;;
72501;SDS011;60524;49.874;8.652;2022-08-01T04:24:31;4.55;;;0.90;;
72501;SDS011;60524;49.874;8.652;2022-08-01T04:26:58;2.90;;;0.80;;
72501;SDS011;60524;49.874;8.652;2022-08-01T04:29:25;4.50;;;1.33;;
72501;SDS011;60524;49.874;8.652;2022-08-01T04:31:52;2.55;;;0.95;;
72501;SDS011;60524;49.874;8.652;2022-08-01T04:34:20;1.52;;;0.93;;
72501;SDS011;60524;49.874;8.652;2022-08-01T04:36:47;5.30;;;0.90;;
72501;SDS011;60524;49.874;8.652;2022-08-01T04:39:12;4.13;;;1.00;;
72501;SDS011;60524;49.874;8.652;2022-08-01T04:41:38;2.28;;;0.98;;
72501;SDS011;60524;49.874;8.652;2022-08-01T04:44:04;3.45;;;1.10;;
72501;SDS011;60524;49.874;8.652;2022-08-01T04:46:31;3.20;;;1.10;;
72501;SDS011;60524;49.874;8.652;2022-08-01T04:48:58;2.55;;;1.02;;
72501;SDS011;60524;49.874;8.652;2022-08-01T04:51:25;1.60;;;0.85;;
72501;SDS011;60524;49.874;8.652;2022-08-01T04:53:50;2.75;;;0.80;;
72501;SDS011;60524;49.874;8.652;2022-08-01T04:56:16;3.20;;;0.90;;
72501;SDS011;60524;49.874;8.652;2022-08-01T04:58:42;2.90;;;1.13;;
72501;SDS011;60524;49.874;8.652;2022-08-01T05:01:09;2.00;;;0.90;;
72501;SDS011;60524;49.874;8.652;2022-08-01T05:03:34;3.75;;;1.00;;
72501;SDS011;60524;49.874;8.652;2022-08-01T05:06:00;1.60;;;0.85;;
72501;SDS011;60524;49.874;8.652;2022-08-01T05:08:25;1.77;;;1.00;;
72501;SDS011;60524;49.874;8.652;2022-08-01T05:10:51;1.73;;;1.02;;
72501;SDS011;60524;49.874;8.652;2022-08-01T05:13:17;3.25;;;0.93;;
72501;SDS011;60524;49.874;8.652;2022-08-01T05:15:43;13.57;;;3.42;;
72501;SDS011;60524;49.874;8.652;2022-08-01T05:18:08;2.03;;;1.00;;
72501;SDS011;60524;49.874;8.652;2022-08-01T05:20:33;2.70;;;1.00;;
72501;SDS011;60524;49.874;8.652;2022-08-01T05:22:59;5.87;;;1.10;;
72501;SDS011;60524;49.874;8.652;2022-08-01T05:25:24;3.45;;;0.95;;
72501;SDS011;60524;49.874;8.652;2022-08-01T05:27:49;3.93;;;1.40;;
72501;SDS011;60524;49.874;8.652;2022-08-01T05:30:15;3.30;;;1.00;;
72501;SDS011;60524;49.874;8.652;2022-08-01T05:32:40;5.22;;;1.20;;
72501;SDS011;60524;49.874;8.652;2022-08-01T05:35:06;2.10;;;1.10;;
72501;SDS011;60524;49.874;8.652;2022-08-01T05:37:33;5.70;;;1.25;;
72501;SDS011;60524;49.874;8.652;2022-08-01T05:39:58;5.13;;;1.42;;
72501;SDS011;60524;49.874;8.652;2022-08-01T05:42:23;6.17;;;1.20;;
72501;SDS011;60524;49.874;8.652;2022-08-01T05:44:49;2.10;;;1.00;;
72501;SDS011;60524;49.874;8.652;2022-08-01T05:47:15;4.13;;;1.40;;
72501;SDS011;60524;49.874;8.652;2022-08-01T05:49:41;3.30;;;1.20;;
72501;SDS011;60524;49.874;8.652;2022-08-01T05:52:07;2.40;;;1.00;;
72501;SDS011;60524;49.874;8.652;2022-08-01T05:54:32;5.00;;;0.90;;
72501;SDS011;60524;49.874;8.652;2022-08-01T05:56:57;2.67;;;1.20;;
72501;SDS011;60524;49.874;8.652;2022-08-01T05:59:26;2.25;;;0.98;;
72501;SDS011;60524;49.874;8.652;2022-08-01T06:01:51;4.03;;;1.13;;
72501;SDS011;60524;49.874;8.652;2022-08-01T06:04:17;2.43;;;0.93;;
72501;SDS011;60524;49.874;8.652;2022-08-01T06:06:42;4.10;;;0.90;;
72501;SDS011;60524;49.874;8.652;2022-08-01T06:09:07;8.13;;;1.30;;
72501;SDS011;60524;49.874;8.652;2022-08-01T06:11:33;3.40;;;1.10;;
72501;SDS011;60524;49.874;8.652;2022-08-01T06:13:58;2.40;;;0.83;;
72501;SDS011;60524;49.874;8.652;2022-08-01T06:16:23;2.07;;;0.93;;
72501;SDS011;60524;49.874;8.652;2022-08-01T06:18:49;9.27;;;1.63;;
72501;SDS011;60524;49.874;8.652;2022-08-01T06:21:14;6.20;;;1.17;;
72501;SDS011;60524;49.874;8.652;2022-08-01T06:23:39;2.97;;;1.00;;
72501;SDS011;60524;49.874;8.652;2022-08-01T06:26:07;4.57;;;1.00;;
72501;SDS011;60524;49.874;8.652;2022-08-01T06:28:32;2.50;;;0.90;;
72501;SDS011;60524;49.874;8.652;2022-08-01T06:30:57;3.10;;;1.00;;
72501;SDS011;60524;49.874;8.652;2022-08-01T06:33:24;3.38;;;1.20;;
72501;SDS011;60524;49.874;8.652;2022-08-01T06:35:49;3.85;;;1.30;;
72501;SDS011;60524;49.874;8.652;2022-08-01T06:38:14;3.17;;;1.13;;
72501;SDS011;60524;49.874;8.652;2022-08-01T06:40:40;2.92;;;1.05;;
72501;SDS011;60524;49.874;8.652;2022-08-01T06:43:06;3.13;;;1.10;;
72501;SDS011;60524;49.874;8.652;2022-08-01T06:45:32;2.72;;;1.05;;
72501;SDS011;60524;49.874;8.652;2022-08-01T06:47:58;2.72;;;1.27;;
72501;SDS011;60524;49.874;8.652;2022-08-01T06:50:23;2.70;;;1.30;;
72501;SDS011;60524;49.874;8.652;2022-08-01T06:52:48;5.97;;;1.30;;
72501;SDS011;60524;49.874;8.652;2022-08-01T06:55:14;7.30;;;1.87;;
72501;SDS011;60524;49.874;8.652;2022-08-01T06:57:46;2.45;;;1.30;;
72501;SDS011;60524;49.874;8.652;2022-08-01T07:00:12;3.95;;;1.30;;
72501;SDS011;60524;49.874;8.652;2022-08-01T07:02:38;2.67;;;1.20;;
72501;SDS011;60524;49.874;8.652;2022-08-01T07:05:03;6.95;;;1.27;;
72501;SDS011;60524;49.874;8.652;2022-08-01T07:07:29;3.55;;;1.25;;
72501;SDS011;60524;49.874;8.652;2022-08-01T07:09:55;4.28;;;1.55;;
72501;SDS011;60524;49.874;8.652;2022-08-01T07:12:20;3.95;;;1.20;;
72501;SDS011;60524;49.874;8.652;2022-08-01T07:14:46;3.25;;;1.45;;
72501;SDS011;60524;49.874;8.652;2022-08-01T07:17:11;2.20;;;1.40;;
72501;SDS011;60524;49.874;8.652;2022-08-01T07:19:36;2.53;;;1.20;;
72501;SDS011;60524;49.874;8.652;2022-08-01T07:22:02;2.13;;;1.23;;
72501;SDS011;60524;49.874;8.652;2022-08-01T07:24:27;3.95;;;1.10;;
72501;SDS011;60524;49.874;8.652;2022-08-01T07:26:54;2.72;;;1.25;;
72501;SDS011;60524;49.874;8.652;2022-08-01T07:29:29;2.63;;;1.20;;
72501;SDS011;60524;49.874;8.652;2022-08-01T07:31:55;2.83;;;1.30;;
72501;SDS011;60524;49.874;8.652;2022-08-01T07:34:21;2.63;;;1.13;;
72501;SDS011;60524;49.874;8.652;2022-08-01T07:36:47;1.70;;;1.10;;
72501;SDS011;60524;49.874;8.652;2022-08-01T07:39:12;2.35;;;1.00;;
72501;SDS011;60524;49.874;8.652;2022-08-01T07:41:38;3.30;;;1.47;;
72501;SDS011;60524;49.874;8.652;2022-08-01T07:44:03;3.13;;;1.10;;
72501;SDS011;60524;49.874;8.652;2022-08-01T07:46:29;1.83;;;0.90;;
72501;SDS011;60524;49.874;8.652;2022-08-01T07:48:55;2.28;;;1.13;;
72501;SDS011;60524;49.874;8.652;2022-08-01T07:51:21;2.78;;;1.40;;
72501;SDS011;60524;49.874;8.652;2022-08-01T07:53:46;3.88;;;1.15;;
72501;SDS011;60524;49.874;8.652;2022-08-01T07:56:12;2.80;;;1.30;;
72501;SDS011;60524;49.874;8.652;2022-08-01T07:58:38;2.25;;;1.20;;
72501;SDS011;60524;49.874;8.652;2022-08-01T08:01:03;2.37;;;1.00;;
72501;SDS011;60524;49.874;8.652;2022-08-01T08:03:28;2.37;;;1.40;;
72501;SDS011;60524;49.874;8.652;2022-08-01T08:05:54;3.83;;;1.58;;
72501;SDS011;60524;49.874;8.652;2022-08-01T08:08:19;2.83;;;1.30;;
72501;SDS011;60524;49.874;8.652;2022-08-01T08:10:45;4.10;;;1.33;;
72501;SDS011;60524;49.874;8.652;2022-08-01T08:13:10;2.88;;;1.30;;
72501;SDS011;60524;49.874;8.652;2022-08-01T08:15:35;3.67;;;1.52;;
72501;SDS011;60524;49.874;8.652;2022-08-01T08:18:02;3.60;;;1.43;;
72501;SDS011;60524;49.874;8.652;2022-08-01T08:20:28;6.75;;;1.90;;
72501;SDS011;60524;49.874;8.652;2022-08-01T08:22:54;2.97;;;1.30;;
72501;SDS011;60524;49.874;8.652;2022-08-01T08:25:20;5.70;;;1.23;;
72501;SDS011;60524;49.874;8.652;2022-08-01T08:27:46;5.65;;;1.95;;
72501;SDS011;60524;49.874;8.652;2022-08-01T08:30:12;4.77;;;1.43;;
72501;SDS011;60524;49.874;8.652;2022-08-01T08:32:38;3.85;;;1.73;;
72501;SDS011;60524;49.874;8.652;2022-08-01T08:35:03;11.55;;;1.95;;
72501;SDS011;60524;49.874;8.652;2022-08-01T08:37:29;3.92;;;1.70;;
72501;SDS011;60524;49.874;8.652;2022-08-01T08:39:55;3.33;;;1.43;;
72501;SDS011;60524;49.874;8.652;2022-08-01T08:42:20;4.50;;;1.40;;
72501;SDS011;60524;49.874;8.652;2022-08-01T08:44:45;1.87;;;1.20;;
72501;SDS011;60524;49.874;8.652;2022-08-01T08:47:12;3.25;;;1.40;;
72501;SDS011;60524;49.874;8.652;2022-08-01T08:49:38;4.47;;;1.20;;
72501;SDS011;60524;49.874;8.652;2022-08-01T08:52:04;3.78;;;1.20;;
72501;SDS011;60524;49.874;8.652;2022-08-01T08:54:30;4.75;;;1.45;;
72501;SDS011;60524;49.874;8.652;2022-08-01T08:56:56;4.50;;;1.58;;
72501;SDS011;60524;49.874;8.652;2022-08-01T08:59:23;3.85;;;1.63;;
72501;SDS011;60524;49.874;8.652;2022-08-01T09:01:51;3.80;;;1.50;;
72501;SDS011;60524;49.874;8.652;2022-08-01T09:04:17;2.42;;;1.40;;
72501;SDS011;60524;49.874;8.652;2022-08-01T09:06:42;2.78;;;1.40;;
72501;SDS011;60524;49.874;8.652;2022-08-01T09:09:08;3.28;;;1.50;;
72501;SDS011;60524;49.874;8.652;2022-08-01T09:11:34;4.63;;;1.60;;
72501;SDS011;60524;49.874;8.652;2022-08-01T09:16:37;4.82;;;1.35;;
72501;SDS011;60524;49.874;8.652;2022-08-01T09:19:08;3.05;;;1.50;;
72501;SDS011;60524;49.874;8.652;2022-08-01T09:21:37;3.60;;;1.70;;
72501;SDS011;60524;49.874;8.652;2022-08-01T09:24:03;2.88;;;1.30;;
72501;SDS011;60524;49.874;8.652;2022-08-01T09:26:34;2.60;;;1.38;;
72501;SDS011;60524;49.874;8.652;2022-08-01T09:29:05;3.17;;;1.60;;
72501;SDS011;60524;49.874;8.652;2022-08-01T09:31:39;1.95;;;1.10;;
72501;SDS011;60524;49.874;8.652;2022-08-01T09:34:06;2.13;;;1.40;;
72501;SDS011;60524;49.874;8.652;2022-08-01T09:36:44;2.85;;;1.27;;
72501;SDS011;60524;49.874;8.652;2022-08-01T09:39:12;2.60;;;1.25;;
72501;SDS011;60524;49.874;8.652;2022-08-01T09:41:38;3.65;;;1.30;;
72501;SDS011;60524;49.874;8.652;2022-08-01T09:44:04;2.75;;;1.40;;
72501;SDS011;60524;49.874;8.652;2022-08-01T09:46:29;2.70;;;1.30;;
72501;SDS011;60524;49.874;8.652;2022-08-01T09:48:58;2.70;;;1.40;;
72501;SDS011;60524;49.874;8.652;2022-08-01T09:51:29;4.45;;;1.30;;
72501;SDS011;60524;49.874;8.652;2022-08-01T09:53:58;2.70;;;1.50;;
72501;SDS011;60524;49.874;8.652;2022-08-01T09:56:24;2.55;;;1.10;;
72501;SDS011;60524;49.874;8.652;2022-08-01T09:58:54;2.85;;;1.30;;
72501;SDS011;60524;49.874;8.652;2022-08-01T10:01:21;3.78;;;1.00;;
72501;SDS011;60524;49.874;8.652;2022-08-01T10:03:52;2.55;;;1.45;;
72501;SDS011;60524;49.874;8.652;2022-08-01T10:06:30;3.65;;;1.23;;
72501;SDS011;60524;49.874;8.652;2022-08-01T10:08:55;3.92;;;1.40;;
72501;SDS011;60524;49.874;8.652;2022-08-01T10:11:20;2.92;;;1.60;;
72501;SDS011;60524;49.874;8.652;2022-08-01T10:13:46;5.68;;;2.22;;
72501;SDS011;60524;49.874;8.652;2022-08-01T10:16:12;4.28;;;1.70;;
72501;SDS011;60524;49.874;8.652;2022-08-01T10:18:37;4.65;;;1.33;;
72501;SDS011;60524;49.874;8.652;2022-08-01T10:21:05;3.90;;;1.60;;
72501;SDS011;60524;49.874;8.652;2022-08-01T10:23:34;2.72;;;1.70;;
72501;SDS011;60524;49.874;8.652;2022-08-01T10:26:01;3.08;;;1.20;;
72501;SDS011;60524;49.874;8.652;2022-08-01T10:28:26;3.45;;;1.70;;
72501;SDS011;60524;49.874;8.652;2022-08-01T10:30:55;3.22;;;1.60;;
72501;SDS011;60524;49.874;8.652;2022-08-01T10:33:24;5.18;;;1.70;;
72501;SDS011;60524;49.874;8.652;2022-08-01T10:35:50;2.33;;;1.40;;
72501;SDS011;60524;49.874;8.652;2022-08-01T10:38:15;2.67;;;1.65;;
72501;SDS011;60524;49.874;8.652;2022-08-01T10:40:42;1.90;;;1.30;;
72501;SDS011;60524;49.874;8.652;2022-08-01T10:43:11;1.65;;;1.30;;
72501;SDS011;60524;49.874;8.652;2022-08-01T10:45:39;3.00;;;1.58;;
72501;SDS011;60524;49.874;8.652;2022-08-01T10:48:16;2.38;;;1.30;;
72501;SDS011;60524;49.874;8.652;2022-08-01T10:53:17;2.70;;;1.50;;
72501;SDS011;60524;49.874;8.652;2022-08-01T10:58:28;4.20;;;1.17;;
72501;SDS011;60524;49.874;8.652;2022-08-01T11:03:39;2.47;;;1.27;;
72501;SDS011;60524;49.874;8.652;2022-08-01T11:06:15;6.80;;;1.92;;
72501;SDS011;60524;49.874;8.652;2022-08-01T11:11:07;3.80;;;1.30;;
72501;SDS011;60524;49.874;8.652;2022-08-01T11:16:26;2.78;;;1.50;;
72501;SDS011;60524;49.874;8.652;2022-08-01T11:18:56;1.75;;;1.23;;
72501;SDS011;60524;49.874;8.652;2022-08-01T11:21:21;7.88;;;1.30;;
72501;SDS011;60524;49.874;8.652;2022-08-01T11:23:51;3.42;;;1.40;;
72501;SDS011;60524;49.874;8.652;2022-08-01T11:26:18;1.83;;;1.10;;
72501;SDS011;60524;49.874;8.652;2022-08-01T11:28:44;1.70;;;1.00;;
72501;SDS011;60524;49.874;8.652;2022-08-01T11:38:41;1.75;;;1.10;;
72501;SDS011;60524;49.874;8.652;2022-08-01T11:41:15;5.25;;;1.70;;
72501;SDS011;60524;49.874;8.652;2022-08-01T11:43:54;3.97;;;1.42;;
72501;SDS011;60524;49.874;8.652;2022-08-01T11:54:51;2.83;;;1.20;;
72501;SDS011;60524;49.874;8.652;2022-08-01T11:57:19;2.28;;;1.30;;
72501;SDS011;60524;49.874;8.652;2022-08-01T11:59:46;3.42;;;1.50;;
72501;SDS011;60524;49.874;8.652;2022-08-01T12:02:27;2.40;;;1.08;;
72501;SDS011;60524;49.874;8.652;2022-08-01T12:04:57;5.40;;;1.60;;
72501;SDS011;60524;49.874;8.652;2022-08-01T12:07:25;1.80;;;1.05;;
72501;SDS011;60524;49.874;8.652;2022-08-01T12:10:08;2.65;;;1.20;;
72501;SDS011;60524;49.874;8.652;2022-08-01T12:12:35;3.40;;;1.13;;
72501;SDS011;60524;49.874;8.652;2022-08-01T12:15:05;5.90;;;1.20;;
72501;SDS011;60524;49.874;8.652;2022-08-01T12:20:26;2.28;;;1.10;;
72501;SDS011;60524;49.874;8.652;2022-08-01T12:22:53;1.92;;;1.10;;
72501;SDS011;60524;49.874;8.652;2022-08-01T12:25:19;2.15;;;1.10;;
72501;SDS011;60524;49.874;8.652;2022-08-01T12:27:45;4.38;;;1.23;;
72501;SDS011;60524;49.874;8.652;2022-08-01T12:30:12;1.73;;;1.00;;
72501;SDS011;60524;49.874;8.652;2022-08-01T12:32:48;1.42;;;1.00;;
72501;SDS011;60524;49.874;8.652;2022-08-01T12:35:15;1.75;;;0.98;;
72501;SDS011;60524;49.874;8.652;2022-08-01T12:37:43;2.75;;;0.90;;
72501;SDS011;60524;49.874;8.652;2022-08-01T12:40:10;2.13;;;1.00;;
72501;SDS011;60524;49.874;8.652;2022-08-01T12:42:42;1.92;;;1.10;;
72501;SDS011;60524;49.874;8.652;2022-08-01T12:45:10;1.60;;;1.00;;
72501;SDS011;60524;49.874;8.652;2022-08-01T12:47:37;2.30;;;1.33;;
72501;SDS011;60524;49.874;8.652;2022-08-01T12:50:05;8.23;;;1.60;;
72501;SDS011;60524;49.874;8.652;2022-08-01T12:52:31;5.32;;;1.48;;
72501;SDS011;60524;49.874;8.652;2022-08-01T12:55:00;1.70;;;1.15;;
72501;SDS011;60524;49.874;8.652;2022-08-01T12:57:33;2.63;;;1.00;;
72501;SDS011;60524;49.874;8.652;2022-08-01T13:00:06;3.25;;;1.15;;
72501;SDS011;60524;49.874;8.652;2022-08-01T13:03:07;1.67;;;0.98;;
72501;SDS011;60524;49.874;8.652;2022-08-01T13:05:45;3.53;;;0.90;;
72501;SDS011;60524;49.874;8.652;2022-08-01T13:08:21;4.93;;;1.40;;
72501;SDS011;60524;49.874;8.652;2022-08-01T13:10:48;2.95;;;1.30;;
72501;SDS011;60524;49.874;8.652;2022-08-01T13:13:15;2.28;;;1.23;;
72501;SDS011;60524;49.874;8.652;2022-08-01T13:15:42;1.33;;;1.10;;
72501;SDS011;60524;49.874;8.652;2022-08-01T13:21:09;2.42;;;1.58;;
72501;SDS011;60524;49.874;8.652;2022-08-01T13:26:04;1.80;;;1.33;;
72501;SDS011;60524;49.874;8.652;2022-08-01T13:28:30;3.97;;;1.60;;
72501;SDS011;60524;49.874;8.652;2022-08-01T13:31:00;5.82;;;1.60;;
72501;SDS011;60524;49.874;8.652;2022-08-01T13:33:28;3.20;;;1.27;;
72501;SDS011;60524;49.874;8.652;2022-08-01T13:36:07;1.42;;;0.85;;
72501;SDS011;60524;49.874;8.652;2022-08-01T13:38:35;1.33;;;1.00;;
72501;SDS011;60524;49.874;8.652;2022-08-01T13:41:23;1.90;;;1.00;;
72501;SDS011;60524;49.874;8.652;2022-08-01T13:43:49;1.70;;;1.03;;
72501;SDS011;60524;49.874;8.652;2022-08-01T13:46:14;3.20;;;1.15;;
72501;SDS011;60524;49.874;8.652;2022-08-01T13:48:40;1.75;;;1.30;;
72501;SDS011;60524;49.874;8.652;2022-08-01T13:51:05;3.55;;;1.30;;
72501;SDS011;60524;49.874;8.652;2022-08-01T13:53:31;2.00;;;1.15;;
72501;SDS011;60524;49.874;8.652;2022-08-01T13:55:56;1.27;;;0.80;;
72501;SDS011;60524;49.874;8.652;2022-08-01T13:58:22;2.40;;;1.50;;
72501;SDS011;60524;49.874;8.652;2022-08-01T14:00:47;2.42;;;1.27;;
72501;SDS011;60524;49.874;8.652;2022-08-01T14:03:13;3.67;;;1.00;;
72501;SDS011;60524;49.874;8.652;2022-08-01T14:05:38;2.95;;;1.30;;
72501;SDS011;60524;49.874;8.652;2022-08-01T14:08:04;2.75;;;1.15;;
72501;SDS011;60524;49.874;8.652;2022-08-01T14:10:30;2.65;;;1.00;;
72501;SDS011;60524;49.874;8.652;2022-08-01T14:12:55;3.13;;;1.10;;
72501;SDS011;60524;49.874;8.652;2022-08-01T14:17:50;2.85;;;1.20;;
72501;SDS011;60524;49.874;8.652;2022-08-01T14:20:15;1.42;;;1.00;;
72501;SDS011;60524;49.874;8.652;2022-08-01T14:22:44;2.70;;;1.20;;
72501;SDS011;60524;49.874;8.652;2022-08-01T14:25:12;4.25;;;1.20;;
72501;SDS011;60524;49.874;8.652;2022-08-01T14:27:38;4.80;;;1.05;;
72501;SDS011;60524;49.874;8.652;2022-08-01T14:30:06;3.22;;;0.90;;
72501;SDS011;60524;49.874;8.652;2022-08-01T14:32:34;2.88;;;0.90;;
72501;SDS011;60524;49.874;8.652;2022-08-01T14:35:01;3.35;;;1.13;;
72501;SDS011;60524;49.874;8.652;2022-08-01T14:37:27;2.40;;;1.10;;
72501;SDS011;60524;49.874;8.652;2022-08-01T14:39:53;2.08;;;1.10;;
72501;SDS011;60524;49.874;8.652;2022-08-01T14:42:19;2.97;;;1.00;;
72501;SDS011;60524;49.874;8.652;2022-08-01T14:44:44;1.67;;;1.00;;
72501;SDS011;60524;49.874;8.652;2022-08-01T14:47:10;1.50;;;1.00;;
72501;SDS011;60524;49.874;8.652;2022-08-01T14:49:35;1.98;;;1.10;;
72501;SDS011;60524;49.874;8.652;2022-08-01T14:52:00;2.78;;;1.65;;
72501;SDS011;60524;49.874;8.652;2022-08-01T14:54:26;2.57;;;1.33;;
72501;SDS011;60524;49.874;8.652;2022-08-01T14:56:51;1.30;;;1.00;;
72501;SDS011;60524;49.874;8.652;2022-08-01T14:59:18;2.65;;;1.27;;
72501;SDS011;60524;49.874;8.652;2022-08-01T15:01:43;1.60;;;1.10;;
72501;SDS011;60524;49.874;8.652;2022-08-01T15:04:09;3.60;;;1.17;;
72501;SDS011;60524;49.874;8.652;2022-08-01T15:06:34;1.53;;;0.80;;
72501;SDS011;60524;49.874;8.652;2022-08-01T15:08:59;1.83;;;1.03;;
72501;SDS011;60524;49.874;8.652;2022-08-01T15:11:25;2.67;;;1.10;;
72501;SDS011;60524;49.874;8.652;2022-08-01T15:13:50;2.80;;;0.90;;
72501;SDS011;60524;49.874;8.652;2022-08-01T15:16:35;5.75;;;0.85;;
72501;SDS011;60524;49.874;8.652;2022-08-01T15:19:00;1.80;;;1.13;;
72501;SDS011;60524;49.874;8.652;2022-08-01T15:21:26;3.42;;;1.00;;
72501;SDS011;60524;49.874;8.652;2022-08-01T15:23:51;3.23;;;0.93;;
72501;SDS011;60524;49.874;8.652;2022-08-01T15:26:16;3.27;;;0.87;;
72501;SDS011;60524;49.874;8.652;2022-08-01T15:28:42;2.50;;;0.93;;
72501;SDS011;60524;49.874;8.652;2022-08-01T15:31:08;8.95;;;1.20;;
72501;SDS011;60524;49.874;8.652;2022-08-01T15:33:34;12.50;;;1.50;;
72501;SDS011;60524;49.874;8.652;2022-08-01T15:35:59;44.13;;;4.30;;
72501;SDS011;60524;49.874;8.652;2022-08-01T15:38:25;21.27;;;3.17;;
72501;SDS011;60524;49.874;8.652;2022-08-01T15:40:50;9.02;;;3.05;;
72501;SDS011;60524;49.874;8.652;2022-08-01T15:43:16;5.03;;;2.30;;
72501;SDS011;60524;49.874;8.652;2022-08-01T15:45:42;9.35;;;2.92;;
72501;SDS011;60524;49.874;8.652;2022-08-01T15:48:07;12.53;;;2.83;;
72501;SDS011;60524;49.874;8.652;2022-08-01T15:50:33;9.90;;;2.85;;
72501;SDS011;60524;49.874;8.652;2022-08-01T15:52:58;6.37;;;1.90;;
72501;SDS011;60524;49.874;8.652;2022-08-01T15:55:23;14.45;;;2.85;;